sensor_id;sensor_type;location;lat;lon;timestamp;temperature;humidity
15426;DHT22;7812;50.072;7.036;2024-02-26T00:01:55;7.00;99.90
15426;DHT22;7812;50.072;7.036;2024-02-26T00:04:21;6.90;99.90
15426;DHT22;7812;50.072;7.036;2024-02-26T00:06:47;6.60;99.90
15426;DHT22;7812;50.072;7.036;2024-02-26T00:09:15;6.70;99.90
15426;DHT22;7812;50.072;7.036;2024-02-26T00:11:41;6.90;99.90
15426;DHT22;7812;50.072;7.036;2024-02-26T00:14:07;7.00;99.90
15426;DHT22;7812;50.072;7.036;2024-02-26T00:16:32;7.10;99.90
15426;DHT22;7812;50.072;7.036;2024-02-26T00:18:58;7.00;99.90
15426;DHT22;7812;50.072;7.036;2024-02-26T00:21:24;7.00;99.90
15426;DHT22;7812;50.072;7.036;2024-02-26T00:23:50;6.90;99.90
15426;DHT22;7812;50.072;7.036;2024-02-26T00:26:18;6.60;99.90
15426;DHT22;7812;50.072;7.036;2024-02-26T00:28:43;6.40;99.90
15426;DHT22;7812;50.072;7.036;2024-02-26T00:31:09;6.40;99.90
15426;DHT22;7812;50.072;7.036;2024-02-26T00:33:35;6.30;99.90
15426;DHT22;7812;50.072;7.036;2024-02-26T00:36:00;6.40;99.90
15426;DHT22;7812;50.072;7.036;2024-02-26T00:38:26;6.70;99.90
15426;DHT22;7812;50.072;7.036;2024-02-26T00:40:52;6.80;99.90
15426;DHT22;7812;50.072;7.036;2024-02-26T00:43:18;6.80;99.90
15426;DHT22;7812;50.072;7.036;2024-02-26T00:45:43;6.60;99.90
15426;DHT22;7812;50.072;7.036;2024-02-26T00:48:09;6.60;99.90
15426;DHT22;7812;50.072;7.036;2024-02-26T00:50:35;6.60;99.90
15426;DHT22;7812;50.072;7.036;2024-02-26T00:53:01;6.60;99.90
15426;DHT22;7812;50.072;7.036;2024-02-26T00:55:27;6.70;99.90
15426;DHT22;7812;50.072;7.036;2024-02-26T00:57:52;6.80;99.90
15426;DHT22;7812;50.072;7.036;2024-02-26T01:00:18;6.90;99.90
15426;DHT22;7812;50.072;7.036;2024-02-26T01:02:44;6.90;99.90
15426;DHT22;7812;50.072;7.036;2024-02-26T01:05:12;6.90;99.90
15426;DHT22;7812;50.072;7.036;2024-02-26T01:07:38;7.00;99.90
15426;DHT22;7812;50.072;7.036;2024-02-26T01:10:05;7.00;99.90
15426;DHT22;7812;50.072;7.036;2024-02-26T01:12:34;7.00;99.90
15426;DHT22;7812;50.072;7.036;2024-02-26T01:15:00;7.10;99.90
15426;DHT22;7812;50.072;7.036;2024-02-26T01:17:26;7.20;99.90
15426;DHT22;7812;50.072;7.036;2024-02-26T01:19:51;7.20;99.90
15426;DHT22;7812;50.072;7.036;2024-02-26T01:22:19;7.10;99.90
15426;DHT22;7812;50.072;7.036;2024-02-26T01:24:44;7.00;99.90
15426;DHT22;7812;50.072;7.036;2024-02-26T01:27:10;6.70;99.90
15426;DHT22;7812;50.072;7.036;2024-02-26T01:29:36;6.50;99.90
15426;DHT22;7812;50.072;7.036;2024-02-26T01:32:01;6.60;99.90
15426;DHT22;7812;50.072;7.036;2024-02-26T01:34:28;6.60;99.90
15426;DHT22;7812;50.072;7.036;2024-02-26T01:36:53;6.60;99.90
15426;DHT22;7812;50.072;7.036;2024-02-26T01:39:21;6.60;99.90
15426;DHT22;7812;50.072;7.036;2024-02-26T01:41:47;6.60;99.90
15426;DHT22;7812;50.072;7.036;2024-02-26T01:44:13;6.80;99.90
15426;DHT22;7812;50.072;7.036;2024-02-26T01:46:39;6.80;99.90
15426;DHT22;7812;50.072;7.036;2024-02-26T01:49:05;7.00;99.90
15426;DHT22;7812;50.072;7.036;2024-02-26T01:51:32;6.90;99.90
15426;DHT22;7812;50.072;7.036;2024-02-26T01:53:59;6.60;99.90
15426;DHT22;7812;50.072;7.036;2024-02-26T01:56:28;6.70;99.90
15426;DHT22;7812;50.072;7.036;2024-02-26T01:58:57;6.80;99.90
15426;DHT22;7812;50.072;7.036;2024-02-26T02:01:25;6.90;99.90
15426;DHT22;7812;50.072;7.036;2024-02-26T02:03:52;6.70;99.90
15426;DHT22;7812;50.072;7.036;2024-02-26T02:06:19;6.80;99.90
15426;DHT22;7812;50.072;7.036;2024-02-26T02:08:44;6.50;99.90
15426;DHT22;7812;50.072;7.036;2024-02-26T02:11:10;6.30;99.90
15426;DHT22;7812;50.072;7.036;2024-02-26T02:13:40;6.60;99.90
15426;DHT22;7812;50.072;7.036;2024-02-26T02:16:06;6.90;99.90
15426;DHT22;7812;50.072;7.036;2024-02-26T02:18:32;6.60;99.90
15426;DHT22;7812;50.072;7.036;2024-02-26T02:21:00;6.60;99.90
15426;DHT22;7812;50.072;7.036;2024-02-26T02:23:26;6.50;99.90
15426;DHT22;7812;50.072;7.036;2024-02-26T02:25:52;6.30;99.90
15426;DHT22;7812;50.072;7.036;2024-02-26T02:28:18;6.50;99.90
15426;DHT22;7812;50.072;7.036;2024-02-26T02:30:44;6.70;99.90
15426;DHT22;7812;50.072;7.036;2024-02-26T02:33:11;6.70;99.90
15426;DHT22;7812;50.072;7.036;2024-02-26T02:35:37;6.40;99.90
15426;DHT22;7812;50.072;7.036;2024-02-26T02:38:03;6.10;99.90
15426;DHT22;7812;50.072;7.036;2024-02-26T02:40:29;5.90;99.90
15426;DHT22;7812;50.072;7.036;2024-02-26T02:42:55;5.90;99.90
15426;DHT22;7812;50.072;7.036;2024-02-26T02:45:20;5.90;99.90
15426;DHT22;7812;50.072;7.036;2024-02-26T02:47:46;6.00;99.90
15426;DHT22;7812;50.072;7.036;2024-02-26T02:50:11;5.90;99.90
15426;DHT22;7812;50.072;7.036;2024-02-26T02:52:37;6.00;99.90
15426;DHT22;7812;50.072;7.036;2024-02-26T02:55:03;6.00;99.90
15426;DHT22;7812;50.072;7.036;2024-02-26T02:57:30;6.00;99.90
15426;DHT22;7812;50.072;7.036;2024-02-26T02:59:56;5.90;99.90
15426;DHT22;7812;50.072;7.036;2024-02-26T03:02:21;6.20;99.90
15426;DHT22;7812;50.072;7.036;2024-02-26T03:04:50;6.20;99.90
15426;DHT22;7812;50.072;7.036;2024-02-26T03:07:16;6.10;99.90
15426;DHT22;7812;50.072;7.036;2024-02-26T03:09:41;6.30;99.90
15426;DHT22;7812;50.072;7.036;2024-02-26T03:12:07;6.60;99.90
15426;DHT22;7812;50.072;7.036;2024-02-26T03:14:33;6.70;99.90
15426;DHT22;7812;50.072;7.036;2024-02-26T03:16:58;6.80;99.90
15426;DHT22;7812;50.072;7.036;2024-02-26T03:19:24;6.30;99.90
15426;DHT22;7812;50.072;7.036;2024-02-26T03:21:50;6.10;99.90
15426;DHT22;7812;50.072;7.036;2024-02-26T03:24:15;6.40;99.90
15426;DHT22;7812;50.072;7.036;2024-02-26T03:26:41;6.20;99.90
15426;DHT22;7812;50.072;7.036;2024-02-26T03:29:06;6.00;99.90
15426;DHT22;7812;50.072;7.036;2024-02-26T03:31:32;6.20;99.90
15426;DHT22;7812;50.072;7.036;2024-02-26T03:33:58;6.20;99.90
15426;DHT22;7812;50.072;7.036;2024-02-26T03:36:24;6.50;99.90
15426;DHT22;7812;50.072;7.036;2024-02-26T03:38:49;6.50;99.90
15426;DHT22;7812;50.072;7.036;2024-02-26T03:41:15;6.00;99.90
15426;DHT22;7812;50.072;7.036;2024-02-26T03:43:41;5.80;99.90
15426;DHT22;7812;50.072;7.036;2024-02-26T03:46:09;6.00;99.90
15426;DHT22;7812;50.072;7.036;2024-02-26T03:48:42;6.00;99.90
15426;DHT22;7812;50.072;7.036;2024-02-26T03:51:09;6.30;99.90
15426;DHT22;7812;50.072;7.036;2024-02-26T03:53:36;6.50;99.90
15426;DHT22;7812;50.072;7.036;2024-02-26T03:56:05;6.60;99.90
15426;DHT22;7812;50.072;7.036;2024-02-26T03:58:31;6.20;99.90
15426;DHT22;7812;50.072;7.036;2024-02-26T04:00:57;6.30;99.90
15426;DHT22;7812;50.072;7.036;2024-02-26T04:03:23;6.40;99.90
15426;DHT22;7812;50.072;7.036;2024-02-26T04:05:48;6.10;99.90
15426;DHT22;7812;50.072;7.036;2024-02-26T04:08:14;6.00;99.90
15426;DHT22;7812;50.072;7.036;2024-02-26T04:10:39;6.30;99.90
15426;DHT22;7812;50.072;7.036;2024-02-26T04:13:07;6.20;99.90
15426;DHT22;7812;50.072;7.036;2024-02-26T04:15:33;6.00;99.90
15426;DHT22;7812;50.072;7.036;2024-02-26T04:17:59;5.90;99.90
15426;DHT22;7812;50.072;7.036;2024-02-26T04:20:24;5.80;99.90
15426;DHT22;7812;50.072;7.036;2024-02-26T04:22:50;5.80;99.90
15426;DHT22;7812;50.072;7.036;2024-02-26T04:25:15;5.90;99.90
15426;DHT22;7812;50.072;7.036;2024-02-26T04:27:41;6.00;99.90
15426;DHT22;7812;50.072;7.036;2024-02-26T04:30:07;6.10;99.90
15426;DHT22;7812;50.072;7.036;2024-02-26T04:32:34;6.00;99.90
15426;DHT22;7812;50.072;7.036;2024-02-26T04:35:00;6.10;99.90
15426;DHT22;7812;50.072;7.036;2024-02-26T04:37:26;6.20;99.90
15426;DHT22;7812;50.072;7.036;2024-02-26T04:40:00;6.10;99.90
15426;DHT22;7812;50.072;7.036;2024-02-26T04:42:26;5.90;99.90
15426;DHT22;7812;50.072;7.036;2024-02-26T04:44:52;5.90;99.90
15426;DHT22;7812;50.072;7.036;2024-02-26T04:47:18;6.10;99.90
15426;DHT22;7812;50.072;7.036;2024-02-26T04:49:43;6.40;99.90
15426;DHT22;7812;50.072;7.036;2024-02-26T04:52:09;6.50;99.90
15426;DHT22;7812;50.072;7.036;2024-02-26T04:54:35;6.80;99.90
15426;DHT22;7812;50.072;7.036;2024-02-26T04:57:01;6.80;99.90
15426;DHT22;7812;50.072;7.036;2024-02-26T04:59:26;6.80;99.90
15426;DHT22;7812;50.072;7.036;2024-02-26T05:01:52;6.80;99.90
15426;DHT22;7812;50.072;7.036;2024-02-26T05:04:18;6.70;99.90
15426;DHT22;7812;50.072;7.036;2024-02-26T05:06:44;7.00;99.90
15426;DHT22;7812;50.072;7.036;2024-02-26T05:09:10;6.80;99.90
15426;DHT22;7812;50.072;7.036;2024-02-26T05:11:35;7.00;99.90
15426;DHT22;7812;50.072;7.036;2024-02-26T05:14:01;6.80;99.90
15426;DHT22;7812;50.072;7.036;2024-02-26T05:16:27;7.00;99.90
15426;DHT22;7812;50.072;7.036;2024-02-26T05:18:53;7.00;99.90
15426;DHT22;7812;50.072;7.036;2024-02-26T05:21:19;6.30;99.90
15426;DHT22;7812;50.072;7.036;2024-02-26T05:23:44;6.00;99.90
15426;DHT22;7812;50.072;7.036;2024-02-26T05:26:11;6.10;99.90
15426;DHT22;7812;50.072;7.036;2024-02-26T05:28:36;6.50;99.90
15426;DHT22;7812;50.072;7.036;2024-02-26T05:31:05;6.70;99.90
15426;DHT22;7812;50.072;7.036;2024-02-26T05:33:31;7.00;99.90
15426;DHT22;7812;50.072;7.036;2024-02-26T05:35:56;6.70;99.90
15426;DHT22;7812;50.072;7.036;2024-02-26T05:38:22;6.60;99.90
15426;DHT22;7812;50.072;7.036;2024-02-26T05:40:47;6.20;99.90
15426;DHT22;7812;50.072;7.036;2024-02-26T05:43:14;5.90;99.90
15426;DHT22;7812;50.072;7.036;2024-02-26T05:45:42;5.80;99.90
15426;DHT22;7812;50.072;7.036;2024-02-26T05:48:08;5.70;99.90
15426;DHT22;7812;50.072;7.036;2024-02-26T05:50:33;5.70;99.90
15426;DHT22;7812;50.072;7.036;2024-02-26T05:52:59;5.80;99.90
15426;DHT22;7812;50.072;7.036;2024-02-26T05:55:24;6.10;99.90
15426;DHT22;7812;50.072;7.036;2024-02-26T05:57:50;6.10;99.90
15426;DHT22;7812;50.072;7.036;2024-02-26T06:00:16;5.80;99.90
15426;DHT22;7812;50.072;7.036;2024-02-26T06:02:41;5.70;99.90
15426;DHT22;7812;50.072;7.036;2024-02-26T06:05:07;5.70;99.90
15426;DHT22;7812;50.072;7.036;2024-02-26T06:07:34;5.80;99.90
15426;DHT22;7812;50.072;7.036;2024-02-26T06:10:00;6.00;99.90
15426;DHT22;7812;50.072;7.036;2024-02-26T06:12:26;6.00;99.90
15426;DHT22;7812;50.072;7.036;2024-02-26T06:14:54;6.30;99.90
15426;DHT22;7812;50.072;7.036;2024-02-26T06:17:19;6.20;99.90
15426;DHT22;7812;50.072;7.036;2024-02-26T06:19:45;6.00;99.90
15426;DHT22;7812;50.072;7.036;2024-02-26T06:22:11;6.10;99.90
15426;DHT22;7812;50.072;7.036;2024-02-26T06:24:36;5.90;99.90
15426;DHT22;7812;50.072;7.036;2024-02-26T06:27:02;5.90;99.90
15426;DHT22;7812;50.072;7.036;2024-02-26T06:29:28;5.90;99.90
15426;DHT22;7812;50.072;7.036;2024-02-26T06:31:54;6.00;99.90
15426;DHT22;7812;50.072;7.036;2024-02-26T06:34:19;6.10;99.90
15426;DHT22;7812;50.072;7.036;2024-02-26T06:36:45;6.10;99.90
15426;DHT22;7812;50.072;7.036;2024-02-26T06:39:11;6.30;99.90
15426;DHT22;7812;50.072;7.036;2024-02-26T06:41:38;6.10;99.90
15426;DHT22;7812;50.072;7.036;2024-02-26T06:44:05;6.10;99.90
15426;DHT22;7812;50.072;7.036;2024-02-26T06:46:31;6.20;99.90
15426;DHT22;7812;50.072;7.036;2024-02-26T06:48:56;6.30;99.90
15426;DHT22;7812;50.072;7.036;2024-02-26T06:51:22;6.20;99.90
15426;DHT22;7812;50.072;7.036;2024-02-26T06:53:49;6.10;99.90
15426;DHT22;7812;50.072;7.036;2024-02-26T06:56:15;6.10;99.90
15426;DHT22;7812;50.072;7.036;2024-02-26T06:58:40;6.20;99.90
15426;DHT22;7812;50.072;7.036;2024-02-26T07:01:06;6.30;99.90
15426;DHT22;7812;50.072;7.036;2024-02-26T07:03:33;6.60;99.90
15426;DHT22;7812;50.072;7.036;2024-02-26T07:05:59;6.60;99.90
15426;DHT22;7812;50.072;7.036;2024-02-26T07:08:25;6.60;99.90
15426;DHT22;7812;50.072;7.036;2024-02-26T07:10:50;6.50;99.90
15426;DHT22;7812;50.072;7.036;2024-02-26T07:13:16;6.80;99.90
15426;DHT22;7812;50.072;7.036;2024-02-26T07:15:42;6.90;99.90
15426;DHT22;7812;50.072;7.036;2024-02-26T07:18:07;6.60;99.90
15426;DHT22;7812;50.072;7.036;2024-02-26T07:20:33;6.60;99.90
15426;DHT22;7812;50.072;7.036;2024-02-26T07:22:59;6.40;99.90
15426;DHT22;7812;50.072;7.036;2024-02-26T07:25:24;6.40;99.90
15426;DHT22;7812;50.072;7.036;2024-02-26T07:27:50;6.60;99.90
15426;DHT22;7812;50.072;7.036;2024-02-26T07:30:16;6.80;99.90
15426;DHT22;7812;50.072;7.036;2024-02-26T07:32:42;6.60;99.90
15426;DHT22;7812;50.072;7.036;2024-02-26T07:35:08;6.60;99.90
15426;DHT22;7812;50.072;7.036;2024-02-26T07:37:34;6.70;99.90
15426;DHT22;7812;50.072;7.036;2024-02-26T07:40:00;6.60;99.90
15426;DHT22;7812;50.072;7.036;2024-02-26T07:42:26;6.40;99.90
15426;DHT22;7812;50.072;7.036;2024-02-26T07:44:52;6.80;99.90
15426;DHT22;7812;50.072;7.036;2024-02-26T07:47:18;6.70;99.90
15426;DHT22;7812;50.072;7.036;2024-02-26T07:49:44;6.90;99.90
15426;DHT22;7812;50.072;7.036;2024-02-26T07:52:10;6.50;99.90
15426;DHT22;7812;50.072;7.036;2024-02-26T07:54:36;6.20;99.90
15426;DHT22;7812;50.072;7.036;2024-02-26T07:57:02;6.10;99.90
15426;DHT22;7812;50.072;7.036;2024-02-26T07:59:31;6.10;99.90
15426;DHT22;7812;50.072;7.036;2024-02-26T08:01:56;6.40;99.90
15426;DHT22;7812;50.072;7.036;2024-02-26T08:04:22;6.60;99.90
15426;DHT22;7812;50.072;7.036;2024-02-26T08:06:47;6.90;99.90
15426;DHT22;7812;50.072;7.036;2024-02-26T08:09:13;7.10;99.90
15426;DHT22;7812;50.072;7.036;2024-02-26T08:11:39;7.20;99.90
15426;DHT22;7812;50.072;7.036;2024-02-26T08:14:05;7.10;99.90
15426;DHT22;7812;50.072;7.036;2024-02-26T08:16:30;7.00;99.90
15426;DHT22;7812;50.072;7.036;2024-02-26T08:18:56;6.90;99.90
15426;DHT22;7812;50.072;7.036;2024-02-26T08:21:21;6.90;99.90
15426;DHT22;7812;50.072;7.036;2024-02-26T08:23:47;6.90;99.90
15426;DHT22;7812;50.072;7.036;2024-02-26T08:26:13;7.10;99.90
15426;DHT22;7812;50.072;7.036;2024-02-26T08:28:38;7.50;99.90
15426;DHT22;7812;50.072;7.036;2024-02-26T08:31:04;7.50;99.90
15426;DHT22;7812;50.072;7.036;2024-02-26T08:33:30;7.70;99.90
15426;DHT22;7812;50.072;7.036;2024-02-26T08:35:56;7.90;99.90
15426;DHT22;7812;50.072;7.036;2024-02-26T08:38:22;8.10;99.90
15426;DHT22;7812;50.072;7.036;2024-02-26T08:40:48;7.90;99.90
15426;DHT22;7812;50.072;7.036;2024-02-26T08:43:14;7.90;99.90
15426;DHT22;7812;50.072;7.036;2024-02-26T08:45:39;8.00;99.90
15426;DHT22;7812;50.072;7.036;2024-02-26T08:48:05;7.80;99.90
15426;DHT22;7812;50.072;7.036;2024-02-26T08:50:31;7.70;99.90
15426;DHT22;7812;50.072;7.036;2024-02-26T08:52:57;7.70;99.90
15426;DHT22;7812;50.072;7.036;2024-02-26T08:55:22;7.20;99.90
15426;DHT22;7812;50.072;7.036;2024-02-26T08:57:48;7.30;99.90
15426;DHT22;7812;50.072;7.036;2024-02-26T09:00:14;7.60;99.90
15426;DHT22;7812;50.072;7.036;2024-02-26T09:02:41;7.70;99.90
15426;DHT22;7812;50.072;7.036;2024-02-26T09:05:09;7.40;99.90
15426;DHT22;7812;50.072;7.036;2024-02-26T09:07:35;7.70;99.90
15426;DHT22;7812;50.072;7.036;2024-02-26T09:10:02;7.30;99.90
15426;DHT22;7812;50.072;7.036;2024-02-26T09:12:27;7.30;99.90
15426;DHT22;7812;50.072;7.036;2024-02-26T09:14:53;7.20;99.90
15426;DHT22;7812;50.072;7.036;2024-02-26T09:17:21;7.30;99.90
15426;DHT22;7812;50.072;7.036;2024-02-26T09:19:46;7.60;99.90
15426;DHT22;7812;50.072;7.036;2024-02-26T09:22:12;7.90;99.90
15426;DHT22;7812;50.072;7.036;2024-02-26T09:24:38;7.90;99.90
15426;DHT22;7812;50.072;7.036;2024-02-26T09:27:04;7.60;99.90
15426;DHT22;7812;50.072;7.036;2024-02-26T09:29:29;7.80;99.90
15426;DHT22;7812;50.072;7.036;2024-02-26T09:31:55;8.10;99.90
15426;DHT22;7812;50.072;7.036;2024-02-26T09:34:20;8.30;99.90
15426;DHT22;7812;50.072;7.036;2024-02-26T09:36:46;8.70;99.90
15426;DHT22;7812;50.072;7.036;2024-02-26T09:39:12;8.50;99.90
15426;DHT22;7812;50.072;7.036;2024-02-26T09:41:40;8.30;99.90
15426;DHT22;7812;50.072;7.036;2024-02-26T09:44:06;8.60;99.90
15426;DHT22;7812;50.072;7.036;2024-02-26T09:46:31;9.00;99.90
15426;DHT22;7812;50.072;7.036;2024-02-26T09:48:57;9.00;99.90
15426;DHT22;7812;50.072;7.036;2024-02-26T09:51:24;9.00;99.90
15426;DHT22;7812;50.072;7.036;2024-02-26T09:53:54;9.20;99.90
15426;DHT22;7812;50.072;7.036;2024-02-26T09:56:21;9.30;99.90
15426;DHT22;7812;50.072;7.036;2024-02-26T09:58:48;8.90;99.90
15426;DHT22;7812;50.072;7.036;2024-02-26T10:01:19;8.60;99.90
15426;DHT22;7812;50.072;7.036;2024-02-26T10:03:52;8.30;99.90
15426;DHT22;7812;50.072;7.036;2024-02-26T10:06:19;8.40;99.90
15426;DHT22;7812;50.072;7.036;2024-02-26T10:08:45;8.30;99.90
15426;DHT22;7812;50.072;7.036;2024-02-26T10:11:13;8.40;99.90
15426;DHT22;7812;50.072;7.036;2024-02-26T10:13:40;8.70;99.90
15426;DHT22;7812;50.072;7.036;2024-02-26T10:16:07;8.80;99.90
15426;DHT22;7812;50.072;7.036;2024-02-26T10:21:16;8.40;99.90
15426;DHT22;7812;50.072;7.036;2024-02-26T10:23:43;8.70;99.90
15426;DHT22;7812;50.072;7.036;2024-02-26T10:26:11;8.90;99.90
15426;DHT22;7812;50.072;7.036;2024-02-26T10:28:42;9.10;99.90
15426;DHT22;7812;50.072;7.036;2024-02-26T10:31:09;9.50;99.90
15426;DHT22;7812;50.072;7.036;2024-02-26T10:33:36;9.50;99.90
15426;DHT22;7812;50.072;7.036;2024-02-26T10:36:03;9.20;99.90
15426;DHT22;7812;50.072;7.036;2024-02-26T10:38:30;9.20;99.90
15426;DHT22;7812;50.072;7.036;2024-02-26T10:40:56;9.40;99.90
15426;DHT22;7812;50.072;7.036;2024-02-26T10:43:21;9.30;99.90
15426;DHT22;7812;50.072;7.036;2024-02-26T10:45:47;9.10;99.90
15426;DHT22;7812;50.072;7.036;2024-02-26T10:48:14;9.00;99.90
15426;DHT22;7812;50.072;7.036;2024-02-26T10:50:40;9.10;99.90
15426;DHT22;7812;50.072;7.036;2024-02-26T10:53:17;9.00;99.90
15426;DHT22;7812;50.072;7.036;2024-02-26T10:55:54;8.90;99.90
15426;DHT22;7812;50.072;7.036;2024-02-26T10:58:22;8.60;99.90
15426;DHT22;7812;50.072;7.036;2024-02-26T11:00:50;8.70;99.90
15426;DHT22;7812;50.072;7.036;2024-02-26T11:03:16;8.70;99.90
15426;DHT22;7812;50.072;7.036;2024-02-26T11:05:47;8.70;99.90
15426;DHT22;7812;50.072;7.036;2024-02-26T11:08:14;8.80;99.90
15426;DHT22;7812;50.072;7.036;2024-02-26T11:10:40;9.10;99.90
15426;DHT22;7812;50.072;7.036;2024-02-26T11:13:06;9.30;99.90
15426;DHT22;7812;50.072;7.036;2024-02-26T11:15:35;9.50;99.90
15426;DHT22;7812;50.072;7.036;2024-02-26T11:18:01;9.80;99.90
15426;DHT22;7812;50.072;7.036;2024-02-26T11:20:32;10.50;99.90
15426;DHT22;7812;50.072;7.036;2024-02-26T11:22:59;11.00;99.90
15426;DHT22;7812;50.072;7.036;2024-02-26T11:25:24;10.50;99.90
15426;DHT22;7812;50.072;7.036;2024-02-26T11:28:00;10.20;99.90
15426;DHT22;7812;50.072;7.036;2024-02-26T11:30:30;9.80;99.90
15426;DHT22;7812;50.072;7.036;2024-02-26T11:32:57;9.60;99.90
15426;DHT22;7812;50.072;7.036;2024-02-26T11:35:23;9.60;99.90
15426;DHT22;7812;50.072;7.036;2024-02-26T11:37:56;9.30;99.90
15426;DHT22;7812;50.072;7.036;2024-02-26T11:40:26;9.20;99.90
15426;DHT22;7812;50.072;7.036;2024-02-26T11:42:53;9.10;99.90
15426;DHT22;7812;50.072;7.036;2024-02-26T11:45:47;9.10;99.90
15426;DHT22;7812;50.072;7.036;2024-02-26T11:48:24;9.00;99.90
15426;DHT22;7812;50.072;7.036;2024-02-26T11:50:52;9.10;99.90
15426;DHT22;7812;50.072;7.036;2024-02-26T11:53:29;9.00;99.90
15426;DHT22;7812;50.072;7.036;2024-02-26T11:58:48;9.10;99.90
15426;DHT22;7812;50.072;7.036;2024-02-26T12:01:47;9.00;99.90
15426;DHT22;7812;50.072;7.036;2024-02-26T12:06:47;8.70;99.90
15426;DHT22;7812;50.072;7.036;2024-02-26T12:09:13;8.70;99.90
15426;DHT22;7812;50.072;7.036;2024-02-26T12:11:40;8.90;99.90
15426;DHT22;7812;50.072;7.036;2024-02-26T12:14:07;9.10;99.90
15426;DHT22;7812;50.072;7.036;2024-02-26T12:16:40;9.10;99.90
15426;DHT22;7812;50.072;7.036;2024-02-26T12:19:08;9.20;99.90
15426;DHT22;7812;50.072;7.036;2024-02-26T12:21:38;9.40;99.90
15426;DHT22;7812;50.072;7.036;2024-02-26T12:24:14;9.30;99.90
15426;DHT22;7812;50.072;7.036;2024-02-26T12:26:41;9.30;99.90
15426;DHT22;7812;50.072;7.036;2024-02-26T12:29:08;9.30;99.90
15426;DHT22;7812;50.072;7.036;2024-02-26T12:31:35;9.10;99.90
15426;DHT22;7812;50.072;7.036;2024-02-26T12:34:03;9.20;99.90
15426;DHT22;7812;50.072;7.036;2024-02-26T12:36:29;9.20;99.90
15426;DHT22;7812;50.072;7.036;2024-02-26T12:38:55;9.20;99.90
15426;DHT22;7812;50.072;7.036;2024-02-26T12:41:21;9.00;99.90
15426;DHT22;7812;50.072;7.036;2024-02-26T12:43:47;9.00;99.90
15426;DHT22;7812;50.072;7.036;2024-02-26T12:46:13;9.10;99.90
15426;DHT22;7812;50.072;7.036;2024-02-26T12:48:42;9.10;99.90
15426;DHT22;7812;50.072;7.036;2024-02-26T12:51:09;9.10;99.90
15426;DHT22;7812;50.072;7.036;2024-02-26T12:53:36;9.10;99.90
15426;DHT22;7812;50.072;7.036;2024-02-26T12:56:02;9.30;99.90
15426;DHT22;7812;50.072;7.036;2024-02-26T12:58:29;9.50;99.90
15426;DHT22;7812;50.072;7.036;2024-02-26T13:00:55;9.70;99.90
15426;DHT22;7812;50.072;7.036;2024-02-26T13:03:22;10.00;99.90
15426;DHT22;7812;50.072;7.036;2024-02-26T13:05:49;9.80;99.90
15426;DHT22;7812;50.072;7.036;2024-02-26T13:08:20;9.80;99.90
15426;DHT22;7812;50.072;7.036;2024-02-26T13:10:46;9.80;99.90
15426;DHT22;7812;50.072;7.036;2024-02-26T13:13:15;9.70;99.90
15426;DHT22;7812;50.072;7.036;2024-02-26T13:15:43;9.90;99.90
15426;DHT22;7812;50.072;7.036;2024-02-26T13:18:15;10.10;99.90
15426;DHT22;7812;50.072;7.036;2024-02-26T13:20:41;10.10;99.90
15426;DHT22;7812;50.072;7.036;2024-02-26T13:23:12;10.00;99.90
15426;DHT22;7812;50.072;7.036;2024-02-26T13:25:38;10.10;99.90
15426;DHT22;7812;50.072;7.036;2024-02-26T13:30:35;10.20;99.90
15426;DHT22;7812;50.072;7.036;2024-02-26T13:33:11;10.40;99.90
15426;DHT22;7812;50.072;7.036;2024-02-26T13:35:38;10.40;99.90
15426;DHT22;7812;50.072;7.036;2024-02-26T13:38:05;10.40;99.90
15426;DHT22;7812;50.072;7.036;2024-02-26T13:40:32;10.30;99.90
15426;DHT22;7812;50.072;7.036;2024-02-26T13:42:57;10.40;99.90
15426;DHT22;7812;50.072;7.036;2024-02-26T13:45:23;10.40;99.90
15426;DHT22;7812;50.072;7.036;2024-02-26T13:47:49;10.10;99.90
15426;DHT22;7812;50.072;7.036;2024-02-26T13:50:14;10.10;99.90
15426;DHT22;7812;50.072;7.036;2024-02-26T13:52:40;10.10;99.90
15426;DHT22;7812;50.072;7.036;2024-02-26T13:55:07;9.80;99.90
15426;DHT22;7812;50.072;7.036;2024-02-26T13:57:33;9.60;99.90
15426;DHT22;7812;50.072;7.036;2024-02-26T13:59:58;9.50;99.90
15426;DHT22;7812;50.072;7.036;2024-02-26T14:02:24;9.70;99.90
15426;DHT22;7812;50.072;7.036;2024-02-26T14:04:50;9.70;99.90
15426;DHT22;7812;50.072;7.036;2024-02-26T14:07:15;9.60;99.90
15426;DHT22;7812;50.072;7.036;2024-02-26T14:09:44;9.70;99.90
15426;DHT22;7812;50.072;7.036;2024-02-26T14:12:11;9.70;99.90
15426;DHT22;7812;50.072;7.036;2024-02-26T14:14:36;9.60;99.90
15426;DHT22;7812;50.072;7.036;2024-02-26T14:17:04;9.50;99.90
15426;DHT22;7812;50.072;7.036;2024-02-26T14:19:31;9.60;99.90
15426;DHT22;7812;50.072;7.036;2024-02-26T14:21:57;9.70;99.90
15426;DHT22;7812;50.072;7.036;2024-02-26T14:24:22;9.70;99.90
15426;DHT22;7812;50.072;7.036;2024-02-26T14:26:48;9.40;99.90
15426;DHT22;7812;50.072;7.036;2024-02-26T14:29:13;9.30;99.90
15426;DHT22;7812;50.072;7.036;2024-02-26T14:31:40;9.40;99.90
15426;DHT22;7812;50.072;7.036;2024-02-26T14:34:05;9.60;99.90
15426;DHT22;7812;50.072;7.036;2024-02-26T14:36:32;9.60;99.90
15426;DHT22;7812;50.072;7.036;2024-02-26T14:38:58;9.80;99.90
15426;DHT22;7812;50.072;7.036;2024-02-26T14:41:23;9.60;99.90
15426;DHT22;7812;50.072;7.036;2024-02-26T14:43:49;9.50;99.90
15426;DHT22;7812;50.072;7.036;2024-02-26T14:46:15;9.40;99.90
15426;DHT22;7812;50.072;7.036;2024-02-26T14:48:40;9.50;99.90
15426;DHT22;7812;50.072;7.036;2024-02-26T14:51:06;9.10;99.90
15426;DHT22;7812;50.072;7.036;2024-02-26T14:53:32;9.00;99.90
15426;DHT22;7812;50.072;7.036;2024-02-26T14:55:58;9.10;99.90
15426;DHT22;7812;50.072;7.036;2024-02-26T14:58:23;9.30;99.90
15426;DHT22;7812;50.072;7.036;2024-02-26T15:00:49;9.40;99.90
15426;DHT22;7812;50.072;7.036;2024-02-26T15:03:15;9.30;99.90
15426;DHT22;7812;50.072;7.036;2024-02-26T15:05:42;9.40;99.90
15426;DHT22;7812;50.072;7.036;2024-02-26T15:08:07;9.60;99.90
15426;DHT22;7812;50.072;7.036;2024-02-26T15:10:35;9.70;99.90
15426;DHT22;7812;50.072;7.036;2024-02-26T15:13:01;10.00;99.90
15426;DHT22;7812;50.072;7.036;2024-02-26T15:15:26;9.90;99.90
15426;DHT22;7812;50.072;7.036;2024-02-26T15:17:52;9.70;99.90
15426;DHT22;7812;50.072;7.036;2024-02-26T15:20:18;9.60;99.90
15426;DHT22;7812;50.072;7.036;2024-02-26T15:22:44;9.70;99.90
15426;DHT22;7812;50.072;7.036;2024-02-26T15:25:13;9.60;99.90
15426;DHT22;7812;50.072;7.036;2024-02-26T15:27:38;9.50;99.90
15426;DHT22;7812;50.072;7.036;2024-02-26T15:30:04;9.30;99.90
15426;DHT22;7812;50.072;7.036;2024-02-26T15:32:30;9.40;99.90
15426;DHT22;7812;50.072;7.036;2024-02-26T15:34:56;9.50;99.90
15426;DHT22;7812;50.072;7.036;2024-02-26T15:37:23;9.50;99.90
15426;DHT22;7812;50.072;7.036;2024-02-26T15:39:49;9.40;99.90
15426;DHT22;7812;50.072;7.036;2024-02-26T15:42:14;9.40;99.90
15426;DHT22;7812;50.072;7.036;2024-02-26T15:44:41;9.40;99.90
15426;DHT22;7812;50.072;7.036;2024-02-26T15:47:07;9.30;99.90
15426;DHT22;7812;50.072;7.036;2024-02-26T15:49:33;9.00;99.90
15426;DHT22;7812;50.072;7.036;2024-02-26T15:51:59;9.10;99.90
15426;DHT22;7812;50.072;7.036;2024-02-26T15:54:25;9.20;99.90
15426;DHT22;7812;50.072;7.036;2024-02-26T15:56:51;9.30;99.90
15426;DHT22;7812;50.072;7.036;2024-02-26T15:59:17;9.40;99.90
15426;DHT22;7812;50.072;7.036;2024-02-26T16:01:43;9.50;99.90
15426;DHT22;7812;50.072;7.036;2024-02-26T16:04:09;9.50;99.90
15426;DHT22;7812;50.072;7.036;2024-02-26T16:06:42;9.40;99.90